sensor_id;sensor_type;location;lat;lon;timestamp;pressure;altitude;pressure_sealevel;temperature;humidity
7754;BME280;3921;42.266;23.122;2023-04-29T00:00:47;95189.38;;;7.50;48.64
7754;BME280;3921;42.266;23.122;2023-04-29T00:03:14;95316.16;;;8.12;48.74
7754;BME280;3921;42.266;23.122;2023-04-29T00:05:41;95419.72;;;8.82;48.39
7754;BME280;3921;42.266;23.122;2023-04-29T00:08:10;95641.16;;;9.98;48.56
7754;BME280;3921;42.266;23.122;2023-04-29T00:10:37;95584.31;;;9.65;49.10
7754;BME280;3921;42.266;23.122;2023-04-29T00:13:05;95578.44;;;9.68;49.38
7754;BME280;3921;42.266;23.122;2023-04-29T00:15:31;95423.06;;;8.73;49.41
7754;BME280;3921;42.266;23.122;2023-04-29T00:17:58;95608.53;;;9.88;49.70
7754;BME280;3921;42.266;23.122;2023-04-29T00:20:26;95631.94;;;9.85;50.40
7754;BME280;3921;42.266;23.122;2023-04-29T00:22:53;95230.19;;;7.40;50.29
7754;BME280;3921;42.266;23.122;2023-04-29T00:25:21;95530.81;;;9.08;50.67
7754;BME280;3921;42.266;23.122;2023-04-29T00:27:48;95715.63;;;10.25;51.27
7754;BME280;3921;42.266;23.122;2023-04-29T00:30:15;95553.38;;;9.20;50.84
7754;BME280;3921;42.266;23.122;2023-04-29T00:32:42;95638.66;;;9.72;50.77
7754;BME280;3921;42.266;23.122;2023-04-29T00:35:09;95728.19;;;10.05;51.29
7754;BME280;3921;42.266;23.122;2023-04-29T00:37:36;95668.75;;;9.84;51.01
7754;BME280;3921;42.266;23.122;2023-04-29T00:40:04;95621.09;;;9.58;50.71
7754;BME280;3921;42.266;23.122;2023-04-29T00:42:33;95597.69;;;9.61;49.83
7754;BME280;3921;42.266;23.122;2023-04-29T00:45:00;95627.78;;;9.69;50.08
7754;BME280;3921;42.266;23.122;2023-04-29T00:47:27;95249.34;;;7.42;49.53
7754;BME280;3921;42.266;23.122;2023-04-29T00:49:55;95340.31;;;7.89;49.44
7754;BME280;3921;42.266;23.122;2023-04-29T00:52:22;95274.34;;;7.35;50.17
7754;BME280;3921;42.266;23.122;2023-04-29T00:54:49;95504.91;;;8.85;49.95
7754;BME280;3921;42.266;23.122;2023-04-29T00:57:18;95261.84;;;7.44;50.04
7754;BME280;3921;42.266;23.122;2023-04-29T00:59:47;95541.66;;;9.05;49.52
7754;BME280;3921;42.266;23.122;2023-04-29T01:02:15;95601.88;;;9.42;49.85
7754;BME280;3921;42.266;23.122;2023-04-29T01:04:43;95437.22;;;8.37;49.43
7754;BME280;3921;42.266;23.122;2023-04-29T01:07:14;95708.09;;;10.21;49.56
7754;BME280;3921;42.266;23.122;2023-04-29T01:09:49;95601.88;;;9.50;50.05
7754;BME280;3921;42.266;23.122;2023-04-29T01:12:20;95616.09;;;9.36;50.75
7754;BME280;3921;42.266;23.122;2023-04-29T01:15:03;95316.00;;;7.36;51.00
7754;BME280;3921;42.266;23.122;2023-04-29T01:17:35;95669.59;;;9.50;50.88
7754;BME280;3921;42.266;23.122;2023-04-29T01:20:08;95714.78;;;9.82;50.60
7754;BME280;3921;42.266;23.122;2023-04-29T01:22:35;95638.63;;;9.39;50.62
7754;BME280;3921;42.266;23.122;2023-04-29T01:25:05;95486.41;;;8.32;50.53
7754;BME280;3921;42.266;23.122;2023-04-29T01:27:38;95716.44;;;9.86;51.04
7754;BME280;3921;42.266;23.122;2023-04-29T01:30:12;95424.53;;;7.90;51.11
7754;BME280;3921;42.266;23.122;2023-04-29T01:32:51;95613.53;;;9.08;50.76
7754;BME280;3921;42.266;23.122;2023-04-29T01:35:29;95734.03;;;9.81;50.45
7754;BME280;3921;42.266;23.122;2023-04-29T01:38:07;95629.41;;;9.16;50.57
7754;BME280;3921;42.266;23.122;2023-04-29T01:40:43;95493.16;;;8.65;50.75
7754;BME280;3921;42.266;23.122;2023-04-29T01:43:14;95468.09;;;8.45;51.05
7754;BME280;3921;42.266;23.122;2023-04-29T01:45:42;95235.03;;;6.91;51.60
7754;BME280;3921;42.266;23.122;2023-04-29T01:48:10;95580.13;;;9.12;50.60
7754;BME280;3921;42.266;23.122;2023-04-29T01:50:37;95346.91;;;7.61;51.11
7754;BME280;3921;42.266;23.122;2023-04-29T01:53:04;95539.97;;;8.74;50.92
7754;BME280;3921;42.266;23.122;2023-04-29T01:55:32;95323.50;;;7.37;51.79
7754;BME280;3921;42.266;23.122;2023-04-29T01:58:38;95124.00;;;6.08;51.42
7754;BME280;3921;42.266;23.122;2023-04-29T02:01:05;95365.25;;;7.61;51.13
7754;BME280;3921;42.266;23.122;2023-04-29T02:03:32;95414.53;;;7.94;51.25
7754;BME280;3921;42.266;23.122;2023-04-29T02:05:59;95601.81;;;8.95;51.35
7754;BME280;3921;42.266;23.122;2023-04-29T02:08:27;95413.69;;;7.80;51.34
7754;BME280;3921;42.266;23.122;2023-04-29T02:10:55;95373.59;;;7.57;51.21
7754;BME280;3921;42.266;23.122;2023-04-29T02:13:22;95281.72;;;7.07;51.60
7754;BME280;3921;42.266;23.122;2023-04-29T02:15:51;95608.47;;;8.99;51.59
7754;BME280;3921;42.266;23.122;2023-04-29T02:18:18;95471.34;;;8.23;50.93
7754;BME280;3921;42.266;23.122;2023-04-29T02:20:45;95637.72;;;8.95;50.80
7754;BME280;3921;42.266;23.122;2023-04-29T02:23:11;95548.25;;;8.53;51.19
7754;BME280;3921;42.266;23.122;2023-04-29T02:25:39;95529.84;;;8.42;51.23
7754;BME280;3921;42.266;23.122;2023-04-29T02:28:05;95197.25;;;6.25;51.52
7754;BME280;3921;42.266;23.122;2023-04-29T02:30:32;95372.69;;;7.40;51.23
7754;BME280;3921;42.266;23.122;2023-04-29T02:33:01;95120.47;;;5.83;51.54
7754;BME280;3921;42.266;23.122;2023-04-29T02:35:28;95613.44;;;8.81;51.30
7754;BME280;3921;42.266;23.122;2023-04-29T02:37:55;95614.31;;;8.84;51.09
7754;BME280;3921;42.266;23.122;2023-04-29T02:40:22;95443.63;;;7.72;51.75
7754;BME280;3921;42.266;23.122;2023-04-29T02:42:50;95388.44;;;7.33;51.79
7754;BME280;3921;42.266;23.122;2023-04-29T02:45:17;95751.47;;;9.32;52.10
7754;BME280;3921;42.266;23.122;2023-04-29T02:47:44;95721.41;;;9.43;51.96
7754;BME280;3921;42.266;23.122;2023-04-29T02:50:12;95444.44;;;7.67;51.86
7754;BME280;3921;42.266;23.122;2023-04-29T02:52:39;95741.50;;;9.49;51.91
7754;BME280;3921;42.266;23.122;2023-04-29T02:55:07;95471.19;;;7.85;52.40
7754;BME280;3921;42.266;23.122;2023-04-29T02:57:34;95562.31;;;8.30;52.47
7754;BME280;3921;42.266;23.122;2023-04-29T03:00:02;95668.66;;;9.11;52.70
7754;BME280;3921;42.266;23.122;2023-04-29T03:02:29;95600.91;;;8.76;52.28
7754;BME280;3921;42.266;23.122;2023-04-29T03:04:56;95401.03;;;7.51;52.61
7754;BME280;3921;42.266;23.122;2023-04-29T03:07:25;95464.47;;;7.71;52.96
7754;BME280;3921;42.266;23.122;2023-04-29T03:09:52;95233.94;;;6.37;53.04
7754;BME280;3921;42.266;23.122;2023-04-29T03:12:19;95559.88;;;8.36;53.47
7754;BME280;3921;42.266;23.122;2023-04-29T03:14:48;95188.03;;;6.17;53.00
7754;BME280;3921;42.266;23.122;2023-04-29T03:17:52;95221.97;;;5.96;53.45
7754;BME280;3921;42.266;23.122;2023-04-29T03:20:19;95615.06;;;8.63;53.43
7754;BME280;3921;42.266;23.122;2023-04-29T03:22:48;95584.84;;;8.30;53.93
7754;BME280;3921;42.266;23.122;2023-04-29T03:25:14;95591.53;;;8.31;54.03
7754;BME280;3921;42.266;23.122;2023-04-29T03:27:42;95412.53;;;7.22;53.32
7754;BME280;3921;42.266;23.122;2023-04-29T03:30:15;95729.63;;;8.96;53.66
7754;BME280;3921;42.266;23.122;2023-04-29T03:32:42;95352.25;;;6.67;51.70
7754;BME280;3921;42.266;23.122;2023-04-29T03:35:09;95521.13;;;7.66;51.65
7754;BME280;3921;42.266;23.122;2023-04-29T03:37:37;95620.66;;;8.19;52.00
7754;BME280;3921;42.266;23.122;2023-04-29T03:40:07;95614.00;;;8.15;52.15
7754;BME280;3921;42.266;23.122;2023-04-29T03:42:34;95460.72;;;7.02;52.59
7754;BME280;3921;42.266;23.122;2023-04-29T03:45:01;95461.56;;;7.01;52.56
7754;BME280;3921;42.266;23.122;2023-04-29T03:47:28;95661.53;;;8.18;53.31
7754;BME280;3921;42.266;23.122;2023-04-29T03:49:55;95604.63;;;7.84;53.29
7754;BME280;3921;42.266;23.122;2023-04-29T03:52:22;95660.63;;;8.07;53.22
7754;BME280;3921;42.266;23.122;2023-04-29T03:54:49;95775.44;;;8.75;53.16
7754;BME280;3921;42.266;23.122;2023-04-29T03:57:17;95606.19;;;7.71;52.51
7754;BME280;3921;42.266;23.122;2023-04-29T03:59:44;95620.50;;;7.89;53.36
7754;BME280;3921;42.266;23.122;2023-04-29T04:02:15;95786.28;;;8.73;53.05
7754;BME280;3921;42.266;23.122;2023-04-29T04:04:42;95684.91;;;8.17;52.66
7754;BME280;3921;42.266;23.122;2023-04-29T04:07:09;95555.13;;;7.38;53.07
7754;BME280;3921;42.266;23.122;2023-04-29T04:09:36;95473.13;;;6.91;52.53
7754;BME280;3921;42.266;23.122;2023-04-29T04:12:03;95335.94;;;6.03;52.69
7754;BME280;3921;42.266;23.122;2023-04-29T04:14:32;95822.13;;;8.66;53.20
7754;BME280;3921;42.266;23.122;2023-04-29T04:16:59;95528.25;;;7.11;53.30
7754;BME280;3921;42.266;23.122;2023-04-29T04:19:26;95717.53;;;8.31;52.75
7754;BME280;3921;42.266;23.122;2023-04-29T04:21:53;95736.81;;;8.40;52.81
7754;BME280;3921;42.266;23.122;2023-04-29T04:24:21;95778.75;;;8.68;53.61
7754;BME280;3921;42.266;23.122;2023-04-29T04:26:48;95828.06;;;8.74;53.54
7754;BME280;3921;42.266;23.122;2023-04-29T04:29:15;95675.66;;;8.06;52.55
7754;BME280;3921;42.266;23.122;2023-04-29T04:31:43;95370.97;;;6.17;53.02
7754;BME280;3921;42.266;23.122;2023-04-29T04:34:11;95676.56;;;8.15;53.15
7754;BME280;3921;42.266;23.122;2023-04-29T04:36:52;95654.84;;;8.11;53.13
7754;BME280;3921;42.266;23.122;2023-04-29T04:39:20;95635.59;;;8.03;52.45
7754;BME280;3921;42.266;23.122;2023-04-29T04:41:47;95664.13;;;8.31;52.73
7754;BME280;3921;42.266;23.122;2023-04-29T04:44:14;95728.66;;;8.68;52.43
7754;BME280;3921;42.266;23.122;2023-04-29T04:46:41;95507.47;;;7.15;52.61
7754;BME280;3921;42.266;23.122;2023-04-29T04:49:09;95644.91;;;8.23;53.27
7754;BME280;3921;42.266;23.122;2023-04-29T04:51:36;95677.69;;;8.60;52.35
7754;BME280;3921;42.266;23.122;2023-04-29T04:54:03;95587.25;;;8.07;51.82
7754;BME280;3921;42.266;23.122;2023-04-29T04:56:30;95316.31;;;6.43;52.47
7754;BME280;3921;42.266;23.122;2023-04-29T04:58:57;95313.78;;;6.40;52.76
7754;BME280;3921;42.266;23.122;2023-04-29T05:01:27;95692.72;;;8.63;53.36
7754;BME280;3921;42.266;23.122;2023-04-29T05:03:54;95503.50;;;7.42;53.57
7754;BME280;3921;42.266;23.122;2023-04-29T05:06:23;95456.72;;;7.27;53.50
7754;BME280;3921;42.266;23.122;2023-04-29T05:08:50;95762.28;;;9.16;54.37
7754;BME280;3921;42.266;23.122;2023-04-29T05:11:17;95552.91;;;7.84;54.15
7754;BME280;3921;42.266;23.122;2023-04-29T05:13:44;95430.03;;;7.20;54.17
7754;BME280;3921;42.266;23.122;2023-04-29T05:16:11;95473.53;;;7.50;54.88
7754;BME280;3921;42.266;23.122;2023-04-29T05:18:40;95292.19;;;6.47;54.76
7754;BME280;3921;42.266;23.122;2023-04-29T05:21:09;95293.91;;;6.49;54.51
7754;BME280;3921;42.266;23.122;2023-04-29T05:23:37;95648.53;;;8.77;54.20
7754;BME280;3921;42.266;23.122;2023-04-29T05:26:05;95268.94;;;6.49;54.34
7754;BME280;3921;42.266;23.122;2023-04-29T05:28:31;95698.72;;;9.02;54.08
7754;BME280;3921;42.266;23.122;2023-04-29T05:30:59;95462.00;;;7.76;53.73
7754;BME280;3921;42.266;23.122;2023-04-29T05:33:26;95559.88;;;8.36;54.02
7754;BME280;3921;42.266;23.122;2023-04-29T05:38:28;95529.81;;;8.33;54.64
7754;BME280;3921;42.266;23.122;2023-04-29T05:40:57;95678.75;;;9.32;53.55
7754;BME280;3921;42.266;23.122;2023-04-29T05:43:27;95392.75;;;7.58;54.17
7754;BME280;3921;42.266;23.122;2023-04-29T05:45:54;95580.09;;;8.91;54.34
7754;BME280;3921;42.266;23.122;2023-04-29T05:48:21;95662.06;;;9.53;53.83
7754;BME280;3921;42.266;23.122;2023-04-29T05:50:49;95244.22;;;7.04;53.97
7754;BME280;3921;42.266;23.122;2023-04-29T05:53:16;95529.09;;;8.69;54.14
7754;BME280;3921;42.266;23.122;2023-04-29T05:55:43;95682.13;;;9.62;53.75
7754;BME280;3921;42.266;23.122;2023-04-29T05:58:13;95668.75;;;9.49;53.46
7754;BME280;3921;42.266;23.122;2023-04-29T06:00:40;95676.25;;;9.45;52.66
7754;BME280;3921;42.266;23.122;2023-04-29T06:03:08;95667.91;;;9.46;52.01
7754;BME280;3921;42.266;23.122;2023-04-29T06:05:35;95647.03;;;9.47;51.12
7754;BME280;3921;42.266;23.122;2023-04-29T06:08:03;95492.31;;;8.45;52.06
7754;BME280;3921;42.266;23.122;2023-04-29T06:10:30;95403.66;;;7.82;51.32
7754;BME280;3921;42.266;23.122;2023-04-29T06:12:58;95667.09;;;9.77;50.87
7754;BME280;3921;42.266;23.122;2023-04-29T06:18:20;95225.13;;;7.20;51.87
7754;BME280;3921;42.266;23.122;2023-04-29T06:20:48;95441.41;;;8.76;52.02
7754;BME280;3921;42.266;23.122;2023-04-29T06:23:15;95484.03;;;9.04;51.88
7754;BME280;3921;42.266;23.122;2023-04-29T06:25:42;95345.38;;;8.18;51.66
7754;BME280;3921;42.266;23.122;2023-04-29T06:28:09;95652.84;;;10.16;52.86
7754;BME280;3921;42.266;23.122;2023-04-29T06:30:36;95668.75;;;10.30;54.39
7754;BME280;3921;42.266;23.122;2023-04-29T06:33:03;95456.47;;;8.86;54.18
7754;BME280;3921;42.266;23.122;2023-04-29T06:35:32;95250.25;;;7.84;53.84
7754;BME280;3921;42.266;23.122;2023-04-29T06:37:59;95550.84;;;9.72;54.23
7754;BME280;3921;42.266;23.122;2023-04-29T06:40:27;95352.09;;;8.43;55.63
7754;BME280;3921;42.266;23.122;2023-04-29T06:45:57;95428.91;;;8.96;55.73
7754;BME280;3921;42.266;23.122;2023-04-29T06:48:24;95476.47;;;9.28;52.68
7754;BME280;3921;42.266;23.122;2023-04-29T06:50:55;95243.59;;;7.89;53.73
7754;BME280;3921;42.266;23.122;2023-04-29T06:53:23;95616.00;;;10.38;50.86
7754;BME280;3921;42.266;23.122;2023-04-29T06:55:50;95520.75;;;9.60;52.38
7754;BME280;3921;42.266;23.122;2023-04-29T06:58:18;95404.66;;;8.94;52.95
7754;BME280;3921;42.266;23.122;2023-04-29T07:00:47;95673.66;;;10.72;52.57
7754;BME280;3921;42.266;23.122;2023-04-29T07:03:30;95514.00;;;9.80;52.58
7754;BME280;3921;42.266;23.122;2023-04-29T07:05:59;95196.06;;;7.85;52.92
7754;BME280;3921;42.266;23.122;2023-04-29T07:08:27;95398.78;;;9.24;52.63
7754;BME280;3921;42.266;23.122;2023-04-29T07:10:55;95600.91;;;10.44;55.65
7754;BME280;3921;42.266;23.122;2023-04-29T07:13:23;95458.03;;;9.65;56.23
7754;BME280;3921;42.266;23.122;2023-04-29T07:15:50;95640.91;;;10.92;56.94
7754;BME280;3921;42.266;23.122;2023-04-29T07:18:17;95191.88;;;8.19;54.74
7754;BME280;3921;42.266;23.122;2023-04-29T07:20:48;95232.75;;;8.47;56.66
7754;BME280;3921;42.266;23.122;2023-04-29T07:23:18;95341.13;;;9.25;55.35
7754;BME280;3921;42.266;23.122;2023-04-29T07:25:46;95221.88;;;8.52;56.55
7754;BME280;3921;42.266;23.122;2023-04-29T07:28:13;95187.69;;;8.36;57.78
7754;BME280;3921;42.266;23.122;2023-04-29T07:30:40;95180.19;;;8.41;57.74
7754;BME280;3921;42.266;23.122;2023-04-29T07:33:08;95272.72;;;8.96;56.22
7754;BME280;3921;42.266;23.122;2023-04-29T07:35:35;95216.00;;;8.67;56.03
7754;BME280;3921;42.266;23.122;2023-04-29T07:38:02;95467.06;;;10.11;55.91
7754;BME280;3921;42.266;23.122;2023-04-29T07:40:31;95651.50;;;11.46;57.15
7754;BME280;3921;42.266;23.122;2023-04-29T07:42:58;95245.09;;;9.03;56.54
7754;BME280;3921;42.266;23.122;2023-04-29T07:45:29;95446.91;;;10.33;54.44
7754;BME280;3921;42.266;23.122;2023-04-29T07:47:56;95279.28;;;9.23;54.19
7754;BME280;3921;42.266;23.122;2023-04-29T07:50:23;95186.75;;;8.74;54.78
7754;BME280;3921;42.266;23.122;2023-04-29T07:52:50;95145.03;;;8.65;56.12
7754;BME280;3921;42.266;23.122;2023-04-29T07:55:19;95379.28;;;9.98;55.83
7754;BME280;3921;42.266;23.122;2023-04-29T07:57:49;95444.28;;;10.53;55.57
7754;BME280;3921;42.266;23.122;2023-04-29T08:00:16;95525.13;;;11.13;55.69
7754;BME280;3921;42.266;23.122;2023-04-29T08:02:43;95222.47;;;9.20;53.44
7754;BME280;3921;42.266;23.122;2023-04-29T08:05:11;95579.38;;;11.46;53.32
7754;BME280;3921;42.266;23.122;2023-04-29T08:07:38;95457.56;;;10.70;53.79
7754;BME280;3921;42.266;23.122;2023-04-29T08:10:06;95652.63;;;12.15;52.21
7754;BME280;3921;42.266;23.122;2023-04-29T08:12:33;95586.66;;;11.75;50.04
7754;BME280;3921;42.266;23.122;2023-04-29T08:15:05;95644.25;;;12.18;49.80
7754;BME280;3921;42.266;23.122;2023-04-29T08:17:32;95553.22;;;11.65;48.72
7754;BME280;3921;42.266;23.122;2023-04-29T08:19:59;95444.66;;;11.13;48.23
7754;BME280;3921;42.266;23.122;2023-04-29T08:22:26;95548.84;;;11.87;47.67
7754;BME280;3921;42.266;23.122;2023-04-29T08:24:53;95501.97;;;11.69;47.27
7754;BME280;3921;42.266;23.122;2023-04-29T08:27:20;95587.06;;;12.25;46.67
7754;BME280;3921;42.266;23.122;2023-04-29T08:29:47;95420.19;;;11.30;46.79
7754;BME280;3921;42.266;23.122;2023-04-29T08:32:16;95207.69;;;10.06;46.80
7754;BME280;3921;42.266;23.122;2023-04-29T08:34:43;95313.47;;;10.74;46.96
7754;BME280;3921;42.266;23.122;2023-04-29T08:37:10;95309.25;;;10.76;47.33
7754;BME280;3921;42.266;23.122;2023-04-29T08:39:37;95647.59;;;12.94;47.18
7754;BME280;3921;42.266;23.122;2023-04-29T08:42:07;95172.53;;;10.08;47.18
7754;BME280;3921;42.266;23.122;2023-04-29T08:44:39;95557.44;;;12.43;47.39
7754;BME280;3921;42.266;23.122;2023-04-29T08:47:06;95289.94;;;10.81;46.22
7754;BME280;3921;42.266;23.122;2023-04-29T08:49:36;95565.47;;;12.73;46.19
7754;BME280;3921;42.266;23.122;2023-04-29T08:52:03;95562.22;;;12.65;45.52
7754;BME280;3921;42.266;23.122;2023-04-29T08:54:31;95294.53;;;11.21;44.00
7754;BME280;3921;42.266;23.122;2023-04-29T08:56:59;95549.56;;;12.71;44.20
7754;BME280;3921;42.266;23.122;2023-04-29T08:59:28;95631.03;;;13.39;44.10
7754;BME280;3921;42.266;23.122;2023-04-29T09:01:56;95475.81;;;12.55;43.72
7754;BME280;3921;42.266;23.122;2023-04-29T09:04:36;95515.78;;;12.83;44.01
7754;BME280;3921;42.266;23.122;2023-04-29T09:07:10;95370.13;;;11.84;43.91
7754;BME280;3921;42.266;23.122;2023-04-29T09:09:39;95349.88;;;11.93;45.58
7754;BME280;3921;42.266;23.122;2023-04-29T09:12:07;95385.59;;;12.20;44.72
7754;BME280;3921;42.266;23.122;2023-04-29T09:14:35;95175.81;;;10.98;44.61
7754;BME280;3921;42.266;23.122;2023-04-29T09:17:04;95515.53;;;12.99;44.44
7754;BME280;3921;42.266;23.122;2023-04-29T09:19:32;95128.38;;;10.73;43.83
7754;BME280;3921;42.266;23.122;2023-04-29T09:22:01;95490.38;;;12.95;43.44
7754;BME280;3921;42.266;23.122;2023-04-29T09:24:30;95301.22;;;11.93;42.90
7754;BME280;3921;42.266;23.122;2023-04-29T09:27:25;95142.44;;;10.86;43.58
7754;BME280;3921;42.266;23.122;2023-04-29T09:30:00;95349.28;;;12.35;42.61
7754;BME280;3921;42.266;23.122;2023-04-29T09:32:27;95406.75;;;12.68;42.72
7754;BME280;3921;42.266;23.122;2023-04-29T09:34:54;95453.31;;;13.00;42.56
7754;BME280;3921;42.266;23.122;2023-04-29T09:37:25;95583.25;;;13.81;43.19
7754;BME280;3921;42.266;23.122;2023-04-29T09:39:54;95577.28;;;13.85;43.58
7754;BME280;3921;42.266;23.122;2023-04-29T09:42:21;95509.84;;;13.42;42.86
7754;BME280;3921;42.266;23.122;2023-04-29T09:44:48;95477.34;;;13.25;42.92
7754;BME280;3921;42.266;23.122;2023-04-29T09:47:16;95510.59;;;13.49;43.29
7754;BME280;3921;42.266;23.122;2023-04-29T09:49:43;95572.25;;;13.85;42.82
7754;BME280;3921;42.266;23.122;2023-04-29T09:52:12;95561.28;;;13.86;42.97
7754;BME280;3921;42.266;23.122;2023-04-29T09:54:42;95576.47;;;13.85;42.72
7754;BME280;3921;42.266;23.122;2023-04-29T09:57:11;95279.13;;;12.09;42.94
7754;BME280;3921;42.266;23.122;2023-04-29T09:59:41;95430.53;;;13.05;42.93
7754;BME280;3921;42.266;23.122;2023-04-29T10:02:12;95278.31;;;12.08;42.78
7754;BME280;3921;42.266;23.122;2023-04-29T10:04:43;95241.84;;;11.74;43.03
7754;BME280;3921;42.266;23.122;2023-04-29T10:07:13;95527.91;;;13.69;43.03
7754;BME280;3921;42.266;23.122;2023-04-29T10:09:41;95116.09;;;11.13;42.87
7754;BME280;3921;42.266;23.122;2023-04-29T10:12:14;95274.66;;;12.26;42.67
7754;BME280;3921;42.266;23.122;2023-04-29T10:14:44;95382.91;;;12.88;43.20
7754;BME280;3921;42.266;23.122;2023-04-29T10:17:15;95328.78;;;12.58;43.11
7754;BME280;3921;42.266;23.122;2023-04-29T10:19:47;95388.56;;;13.02;43.10
7754;BME280;3921;42.266;23.122;2023-04-29T10:22:26;95080.22;;;11.01;43.17
7754;BME280;3921;42.266;23.122;2023-04-29T10:24:56;95450.25;;;13.34;43.69
7754;BME280;3921;42.266;23.122;2023-04-29T10:27:26;95469.59;;;13.36;43.85
7754;BME280;3921;42.266;23.122;2023-04-29T10:29:55;95268.72;;;12.32;43.42
7754;BME280;3921;42.266;23.122;2023-04-29T10:32:25;95393.53;;;13.05;43.16
7754;BME280;3921;42.266;23.122;2023-04-29T10:34:58;95174.75;;;11.73;43.37
7754;BME280;3921;42.266;23.122;2023-04-29T10:37:26;95106.63;;;11.29;43.76
7754;BME280;3921;42.266;23.122;2023-04-29T10:40:04;95254.59;;;12.23;43.28
7754;BME280;3921;42.266;23.122;2023-04-29T10:42:42;95521.69;;;13.88;43.21
7754;BME280;3921;42.266;23.122;2023-04-29T10:45:25;95511.16;;;13.63;43.54
7754;BME280;3921;42.266;23.122;2023-04-29T10:48:13;95479.28;;;13.59;43.70
7754;BME280;3921;42.266;23.122;2023-04-29T10:51:01;95351.88;;;12.83;43.62
7754;BME280;3921;42.266;23.122;2023-04-29T10:53:29;95392.69;;;13.05;43.83
7754;BME280;3921;42.266;23.122;2023-04-29T10:56:02;95440.88;;;13.40;43.47
7754;BME280;3921;42.266;23.122;2023-04-29T10:58:38;95461.63;;;13.58;43.84
7754;BME280;3921;42.266;23.122;2023-04-29T11:01:09;95462.44;;;13.58;45.23
7754;BME280;3921;42.266;23.122;2023-04-29T11:03:50;95515.66;;;13.95;48.37
7754;BME280;3921;42.266;23.122;2023-04-29T11:06:24;95386.03;;;13.00;50.26
7754;BME280;3921;42.266;23.122;2023-04-29T11:09:02;95435.09;;;13.37;50.74
7754;BME280;3921;42.266;23.122;2023-04-29T11:14:29;95501.63;;;13.79;50.45
7754;BME280;3921;42.266;23.122;2023-04-29T11:16:58;95523.19;;;13.97;51.98
7754;BME280;3921;42.266;23.122;2023-04-29T11:19:30;95417.53;;;13.31;52.90
7754;BME280;3921;42.266;23.122;2023-04-29T11:22:08;95527.44;;;13.95;53.95
7754;BME280;3921;42.266;23.122;2023-04-29T11:24:36;95443.38;;;13.42;54.62
7754;BME280;3921;42.266;23.122;2023-04-29T11:27:14;95408.38;;;13.25;54.27
7754;BME280;3921;42.266;23.122;2023-04-29T11:29:44;95365.84;;;13.00;53.81
7754;BME280;3921;42.266;23.122;2023-04-29T11:32:11;95081.56;;;11.26;53.52
7754;BME280;3921;42.266;23.122;2023-04-29T11:34:39;95279.22;;;12.55;53.59
7754;BME280;3921;42.266;23.122;2023-04-29T11:37:06;95082.28;;;11.33;53.54
7754;BME280;3921;42.266;23.122;2023-04-29T11:39:34;95348.16;;;13.03;53.65
7754;BME280;3921;42.266;23.122;2023-04-29T11:42:04;95447.19;;;13.66;52.76
7754;BME280;3921;42.266;23.122;2023-04-29T11:44:35;94994.09;;;10.89;52.18
7754;BME280;3921;42.266;23.122;2023-04-29T11:47:04;95409.59;;;13.50;52.30
7754;BME280;3921;42.266;23.122;2023-04-29T11:49:32;95323.75;;;13.06;52.58
7754;BME280;3921;42.266;23.122;2023-04-29T11:52:00;95013.78;;;11.19;51.95
7754;BME280;3921;42.266;23.122;2023-04-29T11:54:29;95092.09;;;11.50;50.61
7754;BME280;3921;42.266;23.122;2023-04-29T11:56:57;95063.50;;;11.52;49.33
7754;BME280;3921;42.266;23.122;2023-04-29T11:59:30;95220.44;;;12.55;48.38
7754;BME280;3921;42.266;23.122;2023-04-29T12:02:00;95484.03;;;14.19;49.06
7754;BME280;3921;42.266;23.122;2023-04-29T12:04:29;95439.38;;;13.78;49.81
7754;BME280;3921;42.266;23.122;2023-04-29T12:06:56;95010.34;;;11.24;50.60
7754;BME280;3921;42.266;23.122;2023-04-29T12:09:24;95452.25;;;14.07;51.00
7754;BME280;3921;42.266;23.122;2023-04-29T12:11:52;95072.53;;;11.64;51.53
7754;BME280;3921;42.266;23.122;2023-04-29T12:14:19;95103.94;;;11.95;50.85
7754;BME280;3921;42.266;23.122;2023-04-29T12:16:48;95071.44;;;11.83;50.47
7754;BME280;3921;42.266;23.122;2023-04-29T12:19:18;95201.94;;;12.57;50.35
7754;BME280;3921;42.266;23.122;2023-04-29T12:21:50;95219.13;;;12.82;50.10
7754;BME280;3921;42.266;23.122;2023-04-29T12:24:19;95054.84;;;11.70;50.26
7754;BME280;3921;42.266;23.122;2023-04-29T12:26:48;95407.78;;;14.00;49.78
7754;BME280;3921;42.266;23.122;2023-04-29T12:29:15;95215.69;;;12.86;48.72
7754;BME280;3921;42.266;23.122;2023-04-29T12:31:47;95281.34;;;13.26;48.79
7754;BME280;3921;42.266;23.122;2023-04-29T12:34:14;95288.16;;;13.22;48.22
7754;BME280;3921;42.266;23.122;2023-04-29T12:36:41;95506.13;;;14.53;48.22
7754;BME280;3921;42.266;23.122;2023-04-29T12:39:11;95501.84;;;14.55;48.47
7754;BME280;3921;42.266;23.122;2023-04-29T12:41:39;95181.84;;;12.53;49.14
7754;BME280;3921;42.266;23.122;2023-04-29T12:44:07;95442.69;;;14.22;50.18
7754;BME280;3921;42.266;23.122;2023-04-29T12:46:36;95116.72;;;12.31;50.70
7754;BME280;3921;42.266;23.122;2023-04-29T12:49:04;95149.25;;;12.45;51.74
7754;BME280;3921;42.266;23.122;2023-04-29T12:51:32;95089.22;;;12.22;52.42
7754;BME280;3921;42.266;23.122;2023-04-29T12:54:00;95148.19;;;12.57;53.26
7754;BME280;3921;42.266;23.122;2023-04-29T12:56:29;95376.03;;;13.87;51.54
7754;BME280;3921;42.266;23.122;2023-04-29T12:59:04;95395.94;;;14.02;52.12
7754;BME280;3921;42.266;23.122;2023-04-29T13:01:32;95364.22;;;13.89;52.02
7754;BME280;3921;42.266;23.122;2023-04-29T13:04:01;95260.28;;;13.28;52.46
7754;BME280;3921;42.266;23.122;2023-04-29T13:06:30;95479.28;;;14.47;51.85
7754;BME280;3921;42.266;23.122;2023-04-29T13:08:57;95440.72;;;14.36;52.37
7754;BME280;3921;42.266;23.122;2023-04-29T13:11:24;95025.31;;;11.81;52.49
7754;BME280;3921;42.266;23.122;2023-04-29T13:13:53;95422.97;;;14.38;52.02
7754;BME280;3921;42.266;23.122;2023-04-29T13:16:20;94986.81;;;11.76;50.74
7754;BME280;3921;42.266;23.122;2023-04-29T13:18:49;95039.94;;;12.07;51.22
7754;BME280;3921;42.266;23.122;2023-04-29T13:21:16;95202.69;;;13.06;52.03
7754;BME280;3921;42.266;23.122;2023-04-29T13:23:43;95118.09;;;12.47;51.87
7754;BME280;3921;42.266;23.122;2023-04-29T13:26:10;95387.19;;;14.19;52.15
7754;BME280;3921;42.266;23.122;2023-04-29T13:28:38;95018.47;;;11.89;52.38
7754;BME280;3921;42.266;23.122;2023-04-29T13:31:07;95288.19;;;13.63;51.86
7754;BME280;3921;42.266;23.122;2023-04-29T13:33:34;95337.97;;;13.96;50.82
7754;BME280;3921;42.266;23.122;2023-04-29T13:36:01;95260.72;;;13.47;51.14
7754;BME280;3921;42.266;23.122;2023-04-29T13:38:29;95170.72;;;13.08;52.32